createdAt,value
2017-02-06T17:18:54.715Z,1023.22
2017-02-06T17:19:55.394Z,1023.26
2017-02-06T17:20:56.055Z,1023.28
2017-02-06T17:21:56.784Z,1023.26
2017-02-06T17:22:58.164Z,1023.29
2017-02-06T17:23:58.855Z,1023.29
2017-02-06T17:24:59.527Z,1023.29
2017-02-06T17:26:00.187Z,1023.32
2017-02-06T17:27:01.433Z,1023.34
2017-02-06T17:28:03.635Z,1023.33
2017-02-06T17:29:04.325Z,1023.27
2017-02-06T17:30:04.993Z,1023.32
2017-02-06T17:31:05.698Z,1023.34
2017-02-06T17:32:06.427Z,1023.31
2017-02-06T17:33:07.115Z,1023.4
2017-02-06T17:34:07.813Z,1023.39
2017-02-06T17:35:08.521Z,1023.34
2017-02-06T17:36:09.213Z,1023.4
2017-02-06T17:37:09.891Z,1023.35
2017-02-06T17:38:10.622Z,1023.36
2017-02-06T17:39:11.355Z,1023.39
2017-02-06T17:40:12.060Z,1023.43
2017-02-06T17:41:12.744Z,1023.42
2017-02-06T17:42:13.494Z,1023.39
2017-02-06T17:43:14.280Z,1023.38
2017-02-06T17:44:15.027Z,1023.38
2017-02-06T17:45:16.086Z,1023.41
2017-02-06T17:46:16.795Z,1023.39
2017-02-06T17:47:17.469Z,1023.39
2017-02-06T17:48:18.289Z,1023.41
2017-02-06T17:49:19.008Z,1023.44
2017-02-06T17:50:19.708Z,1023.39
2017-02-06T17:51:20.405Z,1023.41
2017-02-06T17:52:21.079Z,1023.39
2017-02-06T17:53:21.778Z,1023.42
2017-02-06T17:54:22.463Z,1023.41
2017-02-06T17:55:23.143Z,1023.45
2017-02-06T17:56:23.854Z,1023.46
2017-02-06T17:57:24.557Z,1023.57
2017-02-06T17:58:25.265Z,1023.52
2017-02-06T17:59:26.156Z,1023.53
2017-02-06T18:00:26.880Z,1023.56
2017-02-06T18:01:27.569Z,1023.51
2017-02-06T18:02:28.245Z,1023.53
2017-02-06T18:03:29.122Z,1023.53
2017-02-06T18:04:29.834Z,1023.5
2017-02-06T18:05:30.538Z,1023.52
2017-02-06T18:06:31.212Z,1023.49
2017-02-06T18:07:32.241Z,1023.51
2017-02-06T18:08:33.026Z,1023.52
2017-02-06T18:09:35.419Z,1023.55
2017-02-06T18:10:37.338Z,1023.61
2017-02-06T18:11:38.525Z,1023.6
2017-02-06T18:12:39.208Z,1023.59
2017-02-06T18:13:39.965Z,1023.55
2017-02-06T18:14:40.647Z,1023.6
2017-02-06T18:15:41.391Z,1023.58
2017-02-06T18:16:42.694Z,1023.57
2017-02-06T18:17:44.773Z,1023.64
2017-02-06T18:18:45.545Z,1023.62
2017-02-06T18:19:46.271Z,1023.63
2017-02-06T18:20:46.969Z,1023.58
2017-02-06T18:21:47.659Z,1023.54
2017-02-06T18:22:48.353Z,1023.57
2017-02-06T18:23:49.039Z,1023.57
2017-02-06T18:24:49.754Z,1023.54
2017-02-06T18:25:50.435Z,1023.54
2017-02-06T18:26:51.127Z,1023.56
2017-02-06T18:27:51.796Z,1023.57
2017-02-06T18:28:52.553Z,1023.55
2017-02-06T18:29:53.225Z,1023.58
2017-02-06T18:30:53.926Z,1023.6
2017-02-06T18:31:54.595Z,1023.6
2017-02-06T18:32:55.303Z,1023.63
2017-02-06T18:33:56.060Z,1023.62
2017-02-06T18:34:56.760Z,1023.64
2017-02-06T18:35:57.450Z,1023.58
2017-02-06T18:36:58.123Z,1023.61
2017-02-06T18:37:58.783Z,1023.61
2017-02-06T18:38:59.484Z,1023.56
2017-02-06T18:40:00.317Z,1023.62
2017-02-06T18:41:01.003Z,1023.6
2017-02-06T18:42:01.861Z,1023.66
2017-02-06T18:43:02.567Z,1023.66
2017-02-06T18:44:03.242Z,1023.71
2017-02-06T18:45:04.003Z,1023.69
2017-02-06T18:46:04.690Z,1023.65
2017-02-06T18:47:05.365Z,1023.68
2017-02-06T18:48:06.033Z,1023.69
2017-02-06T18:49:06.709Z,1023.76
2017-02-06T18:50:07.381Z,1023.72
2017-02-06T18:51:08.070Z,1023.76
2017-02-06T18:52:08.755Z,1023.7
2017-02-06T18:53:09.436Z,1023.72
2017-02-06T18:54:10.091Z,1023.71
2017-02-06T18:55:10.759Z,1023.71
2017-02-06T18:56:11.423Z,1023.71
2017-02-06T18:57:12.093Z,1023.72
2017-02-06T18:58:12.791Z,1023.67
2017-02-06T18:59:13.489Z,1023.68
2017-02-06T19:00:14.605Z,1023.75
2017-02-06T19:01:15.561Z,1023.72
2017-02-06T19:02:16.319Z,1023.71
2017-02-06T19:03:17.003Z,1023.73
2017-02-06T19:04:17.798Z,1023.75
2017-02-06T19:05:20.323Z,1023.74
2017-02-06T19:06:21.411Z,1023.79
2017-02-06T19:07:22.146Z,1023.77
2017-02-06T19:08:23.344Z,1023.74
2017-02-06T19:09:24.075Z,1023.76
2017-02-06T19:10:24.776Z,1023.75
2017-02-06T19:11:25.448Z,1023.69
2017-02-06T19:12:26.118Z,1023.76
2017-02-06T19:13:26.823Z,1023.69
2017-02-06T19:14:27.574Z,1023.66
2017-02-06T19:15:28.462Z,1023.67
2017-02-06T19:16:29.243Z,1023.65
2017-02-06T19:17:29.910Z,1023.65
2017-02-06T19:18:30.889Z,1023.62
2017-02-06T19:19:31.559Z,1023.67
2017-02-06T19:20:32.229Z,1023.68
2017-02-06T19:21:32.907Z,1023.69
2017-02-06T19:22:33.563Z,1023.7
2017-02-06T19:23:34.434Z,1023.73
2017-02-06T19:24:35.120Z,1023.68
2017-02-06T19:25:36.062Z,1023.71
2017-02-06T19:26:36.736Z,1023.72
2017-02-06T19:27:37.463Z,1023.69
2017-02-06T19:28:38.187Z,1023.7
2017-02-06T19:29:38.864Z,1023.73
2017-02-06T19:30:39.532Z,1023.72
2017-02-06T19:31:40.282Z,1023.69
2017-02-06T19:32:40.959Z,1023.74
2017-02-06T19:33:41.652Z,1023.68
2017-02-06T19:34:42.344Z,1023.7
2017-02-06T19:35:43.010Z,1023.69
2017-02-06T19:36:43.708Z,1023.65
2017-02-06T19:37:44.409Z,1023.67
2017-02-06T19:38:45.214Z,1023.66
2017-02-06T19:39:46.129Z,1023.66
2017-02-06T19:40:46.817Z,1023.66
2017-02-06T19:41:47.515Z,1023.69
2017-02-06T19:42:48.190Z,1023.71
2017-02-06T19:43:48.851Z,1023.69
2017-02-06T19:44:49.547Z,1023.72
2017-02-06T19:45:50.214Z,1023.69
2017-02-06T19:46:50.957Z,1023.69
2017-02-06T19:47:51.640Z,1023.68
2017-02-06T19:48:52.311Z,1023.68
2017-02-06T19:49:52.993Z,1023.68
2017-02-06T19:50:53.696Z,1023.68
2017-02-06T19:51:54.366Z,1023.67
2017-02-06T19:52:55.039Z,1023.68
2017-02-06T19:53:55.795Z,1023.69
2017-02-06T19:54:56.483Z,1023.66
2017-02-06T19:55:57.188Z,1023.7
2017-02-06T19:56:57.871Z,1023.66
2017-02-06T19:57:58.559Z,1023.71
2017-02-06T19:58:59.241Z,1023.7
2017-02-06T19:59:59.928Z,1023.72
2017-02-06T20:01:00.601Z,1023.7
2017-02-06T20:02:01.272Z,1023.71
2017-02-06T20:03:01.961Z,1023.66
2017-02-06T20:04:02.648Z,1023.72
2017-02-06T20:05:03.331Z,1023.65
2017-02-06T20:06:04.006Z,1023.69
2017-02-06T20:07:04.698Z,1023.7
2017-02-06T20:08:05.411Z,1023.71
2017-02-06T20:09:06.130Z,1023.68
2017-02-06T20:10:06.796Z,1023.66
2017-02-06T20:11:07.612Z,1023.66
2017-02-06T20:12:08.473Z,1023.65
2017-02-06T20:13:09.355Z,1023.67
2017-02-06T20:14:10.148Z,1023.64
2017-02-06T20:15:11.383Z,1023.63
2017-02-06T20:16:12.442Z,1023.63
2017-02-06T20:17:13.173Z,1023.65
2017-02-06T20:18:14.249Z,1023.61
2017-02-06T20:19:15.703Z,1023.59
2017-02-06T20:20:16.758Z,1023.58
2017-02-06T20:21:17.555Z,1023.61
2017-02-06T20:22:18.597Z,1023.59
2017-02-06T20:23:19.577Z,1023.59
2017-02-06T20:24:20.419Z,1023.6
2017-02-06T20:25:21.417Z,1023.6
2017-02-06T20:26:23.442Z,1023.57
2017-02-06T20:27:24.334Z,1023.59
2017-02-06T20:28:25.148Z,1023.54
2017-02-06T20:29:26.046Z,1023.54
2017-02-06T20:30:26.941Z,1023.55
2017-02-06T20:31:27.650Z,1023.57
2017-02-06T20:32:28.356Z,1023.53
2017-02-06T20:33:29.497Z,1023.6
2017-02-06T20:34:30.401Z,1023.61
2017-02-06T20:35:31.218Z,1023.63
2017-02-06T20:36:32.016Z,1023.61
2017-02-06T20:37:33.093Z,1023.6
2017-02-06T20:38:33.890Z,1023.64
2017-02-06T20:39:34.807Z,1023.61
2017-02-06T20:40:35.741Z,1023.6
2017-02-06T20:41:36.565Z,1023.62
2017-02-06T20:42:38.607Z,1023.6
2017-02-06T20:43:39.944Z,1023.62
2017-02-06T20:44:41.377Z,1023.65
2017-02-06T20:45:43.253Z,1023.64
2017-02-06T20:46:44.999Z,1023.65
2017-02-06T20:47:46.168Z,1023.66
2017-02-06T20:48:46.993Z,1023.63
2017-02-06T20:49:47.773Z,1023.62
2017-02-06T20:50:48.484Z,1023.61
2017-02-06T20:51:49.177Z,1023.57
2017-02-06T20:52:49.884Z,1023.56
2017-02-06T20:53:50.734Z,1023.53
2017-02-06T20:54:51.454Z,1023.56
2017-02-06T20:55:52.178Z,1023.61
2017-02-06T20:56:52.940Z,1023.59
2017-02-06T20:57:53.727Z,1023.56
2017-02-06T20:58:54.575Z,1023.62
2017-02-06T20:59:55.197Z,1023.58
2017-02-06T21:00:55.925Z,1023.61
2017-02-06T21:01:56.784Z,1023.61
2017-02-06T21:02:57.475Z,1023.62
2017-02-06T21:03:58.177Z,1023.59
2017-02-06T21:04:58.855Z,1023.62
2017-02-06T21:05:59.561Z,1023.62
2017-02-06T21:07:00.244Z,1023.66
2017-02-06T21:08:00.943Z,1023.61
2017-02-06T21:09:01.771Z,1023.61
2017-02-06T21:10:02.412Z,1023.61
2017-02-06T21:11:03.165Z,1023.59
2017-02-06T21:12:04.037Z,1023.56
2017-02-06T21:13:04.777Z,1023.57
2017-02-06T21:14:05.459Z,1023.56
2017-02-06T21:15:06.299Z,1023.59
2017-02-06T21:16:07.102Z,1023.59
2017-02-06T21:17:07.874Z,1023.63
2017-02-06T21:18:08.561Z,1023.66
2017-02-06T21:19:09.283Z,1023.63
2017-02-06T21:20:09.984Z,1023.65
2017-02-06T21:21:10.659Z,1023.66
2017-02-06T21:22:11.342Z,1023.62
2017-02-06T21:23:12.035Z,1023.63
2017-02-06T21:24:12.794Z,1023.64
2017-02-06T21:25:13.481Z,1023.65
2017-02-06T21:26:14.302Z,1023.63
2017-02-06T21:27:14.979Z,1023.61
2017-02-06T21:28:15.669Z,1023.63
2017-02-06T21:29:16.387Z,1023.63
2017-02-06T21:30:17.110Z,1023.58
2017-02-06T21:31:17.826Z,1023.6
2017-02-06T21:32:18.503Z,1023.62
2017-02-06T21:33:19.205Z,1023.59
2017-02-06T21:34:20.036Z,1023.58
2017-02-06T21:35:20.801Z,1023.57
2017-02-06T21:36:22.061Z,1023.55
2017-02-06T21:37:22.853Z,1023.54
2017-02-06T21:38:23.605Z,1023.51
2017-02-06T21:39:24.347Z,1023.52
2017-02-06T21:40:25.477Z,1023.51
2017-02-06T21:41:26.015Z,1023.5
2017-02-06T21:42:26.691Z,1023.47
2017-02-06T21:43:27.381Z,1023.47
2017-02-06T21:44:28.117Z,1023.48
2017-02-06T21:45:28.920Z,1023.51
2017-02-06T21:46:29.612Z,1023.51
2017-02-06T21:47:30.290Z,1023.51
2017-02-06T21:48:30.964Z,1023.5
2017-02-06T21:49:31.702Z,1023.49
2017-02-06T21:50:32.465Z,1023.46
2017-02-06T21:51:33.106Z,1023.42
2017-02-06T21:52:33.821Z,1023.41
2017-02-06T21:53:34.504Z,1023.36
2017-02-06T21:54:35.192Z,1023.4
2017-02-06T21:55:35.895Z,1023.43
2017-02-06T21:56:36.581Z,1023.42
2017-02-06T21:57:37.255Z,1023.45
2017-02-06T21:58:37.931Z,1023.45
2017-02-06T21:59:38.671Z,1023.39
2017-02-06T22:00:39.373Z,1023.47
2017-02-06T22:01:40.063Z,1023.41
2017-02-06T22:02:40.727Z,1023.45
2017-02-06T22:03:41.411Z,1023.42
2017-02-06T22:04:42.114Z,1023.42
2017-02-06T22:05:42.872Z,1023.41
2017-02-06T22:06:43.645Z,1023.41
2017-02-06T22:07:44.320Z,1023.39
2017-02-06T22:08:45.028Z,1023.42
2017-02-06T22:09:45.719Z,1023.37
2017-02-06T22:10:46.466Z,1023.41
2017-02-06T22:11:47.175Z,1023.37
2017-02-06T22:12:47.845Z,1023.36
2017-02-06T22:13:48.637Z,1023.33
2017-02-06T22:14:49.362Z,1023.37
2017-02-06T22:15:50.053Z,1023.36
2017-02-06T22:16:50.745Z,1023.36
2017-02-06T22:17:51.525Z,1023.34
2017-02-06T22:18:52.211Z,1023.36
2017-02-06T22:19:52.916Z,1023.32
2017-02-06T22:20:53.766Z,1023.36
2017-02-06T22:21:54.497Z,1023.35
2017-02-06T22:22:55.247Z,1023.38
2017-02-06T22:23:55.864Z,1023.4
2017-02-06T22:24:56.543Z,1023.4
2017-02-06T22:25:57.304Z,1023.39
2017-02-06T22:26:58.122Z,1023.36
2017-02-06T22:27:58.880Z,1023.36
2017-02-06T22:28:59.573Z,1023.39
2017-02-06T22:30:00.280Z,1023.37
2017-02-06T22:31:01.086Z,1023.37
2017-02-06T22:32:01.963Z,1023.42
2017-02-06T22:33:02.687Z,1023.38
2017-02-06T22:34:03.520Z,1023.41
2017-02-06T22:35:04.168Z,1023.43
2017-02-06T22:36:04.860Z,1023.42
2017-02-06T22:37:05.573Z,1023.42
2017-02-06T22:38:06.245Z,1023.44
2017-02-06T22:39:06.949Z,1023.42
2017-02-06T22:40:07.630Z,1023.38
2017-02-06T22:41:08.334Z,1023.37
2017-02-06T22:42:09.023Z,1023.35
2017-02-06T22:43:09.692Z,1023.37
2017-02-06T22:44:10.423Z,1023.4
2017-02-06T22:45:11.163Z,1023.39
2017-02-06T22:46:11.931Z,1023.36
2017-02-06T22:47:12.786Z,1023.37
2017-02-06T22:48:13.559Z,1023.36
2017-02-06T22:49:14.329Z,1023.33
2017-02-06T22:50:15.205Z,1023.32
2017-02-06T22:51:16.005Z,1023.31
2017-02-06T22:52:16.863Z,1023.33
2017-02-06T22:53:17.567Z,1023.35
2017-02-06T22:54:18.289Z,1023.35
2017-02-06T22:55:18.980Z,1023.36
2017-02-06T22:56:19.834Z,1023.38
2017-02-06T22:57:20.592Z,1023.34
2017-02-06T22:58:21.427Z,1023.35
2017-02-06T22:59:22.307Z,1023.35
2017-02-06T23:00:22.991Z,1023.37
2017-02-06T23:01:23.824Z,1023.34
2017-02-06T23:02:24.671Z,1023.37
2017-02-06T23:03:25.409Z,1023.39
2017-02-06T23:04:26.243Z,1023.34
2017-02-06T23:05:26.974Z,1023.34
2017-02-06T23:06:27.671Z,1023.4
2017-02-06T23:07:28.339Z,1023.4
2017-02-06T23:08:29.012Z,1023.42
2017-02-06T23:09:29.676Z,1023.46
2017-02-06T23:10:30.641Z,1023.45
2017-02-06T23:11:31.869Z,1023.44
2017-02-06T23:12:32.493Z,1023.42
2017-02-06T23:13:33.208Z,1023.42
2017-02-06T23:14:34.000Z,1023.4
2017-02-06T23:15:34.746Z,1023.37
2017-02-06T23:16:35.483Z,1023.43
2017-02-06T23:17:36.230Z,1023.43
2017-02-06T23:18:37.097Z,1023.44
2017-02-06T23:19:38.182Z,1023.45
2017-02-06T23:20:38.995Z,1023.45
2017-02-06T23:21:40.301Z,1023.46
2017-02-06T23:22:41.073Z,1023.44
2017-02-06T23:23:42.416Z,1023.53
2017-02-06T23:24:43.417Z,1023.5
2017-02-06T23:25:44.415Z,1023.49
2017-02-06T23:26:45.174Z,1023.46
2017-02-06T23:27:46.610Z,1023.48
2017-02-06T23:28:47.720Z,1023.5
2017-02-06T23:29:48.432Z,1023.5
2017-02-06T23:30:49.111Z,1023.46
2017-02-06T23:31:50.003Z,1023.43
2017-02-06T23:32:50.920Z,1023.45
2017-02-06T23:33:51.689Z,1023.46
2017-02-06T23:34:53.204Z,1023.42
2017-02-06T23:35:53.980Z,1023.43
2017-02-06T23:36:55.192Z,1023.4
2017-02-06T23:37:55.920Z,1023.44
2017-02-06T23:38:57.052Z,1023.41
2017-02-06T23:39:57.899Z,1023.42
2017-02-06T23:40:58.636Z,1023.47
2017-02-06T23:41:59.326Z,1023.39
2017-02-06T23:43:00.183Z,1023.39
2017-02-06T23:44:01.115Z,1023.37
2017-02-06T23:45:01.837Z,1023.36
2017-02-06T23:46:02.566Z,1023.38
2017-02-06T23:47:03.370Z,1023.4
2017-02-06T23:48:04.083Z,1023.41
2017-02-06T23:49:04.923Z,1023.42
2017-02-06T23:50:05.501Z,1023.4
2017-02-06T23:51:06.205Z,1023.37
2017-02-06T23:52:06.885Z,1023.41
2017-02-06T23:53:07.597Z,1023.42
2017-02-06T23:54:08.542Z,1023.39
2017-02-06T23:55:09.332Z,1023.42
2017-02-06T23:56:10.274Z,1023.45
2017-02-06T23:57:10.938Z,1023.44
2017-02-06T23:58:11.802Z,1023.43
2017-02-06T23:59:12.497Z,1023.48
